Time;durP1;ratioP1;P1;durP2;ratioP2;P2;SDS_P1;SDS_P2;PMS_P1;PMS_P2;Temp;Humidity;BMP_temperature;BMP_pressure;BME280_temperature;BME280_humidity;BME280_pressure;Samples;Min_cycle;Max_cycle;Signal;HPM_P1;HPM_P2
2023/10/02 00:01:23;;;;;;;25.23;13.40;;;;;;;17.99;100.00;101971.09;5049697;28;20067;-65
2023/10/02 00:04:15;;;;;;;26.92;13.10;;;;;;;17.98;100.00;101975.59;5046875;28;20670;-66
2023/10/02 00:06:36;;;;;;;28.23;13.55;;;;;;;17.97;100.00;101973.84;5047382;28;20466;-65
2023/10/02 00:09:04;;;;;;;24.10;12.40;;;;;;;17.96;100.00;101965.91;5050319;28;20128;-67
2023/10/02 00:11:41;;;;;;;25.38;12.27;;;;;;;17.93;100.00;101972.25;5067714;28;20549;-65
2023/10/02 00:14:23;;;;;;;28.90;13.20;;;;;;;17.97;100.00;101965.00;5066011;28;20123;-66
2023/10/02 00:16:59;;;;;;;24.02;12.05;;;;;;;17.92;100.00;101963.41;5067736;28;20520;-66
2023/10/02 00:19:29;;;;;;;26.60;13.32;;;;;;;17.87;100.00;101968.09;5067406;28;20512;-66
2023/10/02 00:22:03;;;;;;;22.50;12.50;;;;;;;17.81;100.00;101966.56;5049330;28;20529;-66
2023/10/02 00:24:32;;;;;;;28.42;12.98;;;;;;;17.77;100.00;101970.31;5069687;28;20111;-66
2023/10/02 00:26:57;;;;;;;24.30;12.05;;;;;;;17.81;100.00;101963.03;5067595;28;20050;-67
2023/10/02 00:29:24;;;;;;;24.35;12.93;;;;;;;17.83;100.00;101971.84;5050646;28;20028;-66
2023/10/02 00:31:50;;;;;;;24.45;13.02;;;;;;;17.87;100.00;101967.22;5048062;28;20517;-66
2023/10/02 00:34:16;;;;;;;27.77;12.88;;;;;;;17.82;100.00;101972.75;5055772;28;20040;-66
2023/10/02 00:36:42;;;;;;;24.35;11.68;;;;;;;17.78;100.00;101968.50;5051559;28;20033;-66
2023/10/02 00:39:30;;;;;;;25.08;12.43;;;;;;;17.75;100.00;101971.31;5048160;28;20403;-66
2023/10/02 00:42:15;;;;;;;21.60;11.52;;;;;;;17.67;100.00;101969.03;5037937;28;20021;-67
2023/10/02 00:45:02;;;;;;;26.75;12.32;;;;;;;17.57;100.00;101968.56;5048003;28;20021;-65
2023/10/02 00:47:40;;;;;;;29.00;12.05;;;;;;;17.48;100.00;101975.19;5047119;28;20032;-66
2023/10/02 00:50:07;;;;;;;27.08;12.50;;;;;;;17.43;100.00;101971.88;5045460;28;20051;-64
2023/10/02 00:52:33;;;;;;;25.30;12.00;;;;;;;17.38;100.00;101969.41;5047821;28;20633;-67
2023/10/02 00:55:05;;;;;;;24.77;12.90;;;;;;;17.32;100.00;101960.81;5046332;28;20040;-65
2023/10/02 00:57:30;;;;;;;30.50;12.35;;;;;;;17.24;100.00;101961.16;5047493;28;20025;-67
2023/10/02 00:59:59;;;;;;;26.98;12.70;;;;;;;17.18;100.00;101965.84;5046247;28;20494;-66
2023/10/02 01:02:25;;;;;;;22.30;12.60;;;;;;;17.12;100.00;101960.78;5048033;28;20112;-67
2023/10/02 01:04:51;;;;;;;24.67;12.18;;;;;;;17.10;100.00;101965.28;5045632;28;20158;-65
2023/10/02 01:07:17;;;;;;;29.45;13.35;;;;;;;17.11;100.00;101958.19;5048022;28;20364;-66
2023/10/02 01:10:06;;;;;;;25.10;13.27;;;;;;;17.07;100.00;101956.59;5046999;28;20033;-68
2023/10/02 01:12:38;;;;;;;23.67;12.40;;;;;;;17.00;100.00;101950.63;5046739;28;20033;-66
2023/10/02 01:15:08;;;;;;;29.35;13.95;;;;;;;16.98;100.00;101947.16;5045595;28;20043;-66
2023/10/02 01:17:34;;;;;;;26.75;13.95;;;;;;;16.91;100.00;101955.41;5046410;28;20084;-66
2023/10/02 01:20:08;;;;;;;24.55;12.57;;;;;;;16.89;100.00;101945.78;5046037;28;20075;-65
2023/10/02 01:22:41;;;;;;;29.50;13.57;;;;;;;16.89;100.00;101948.44;5047421;28;20681;-65
2023/10/02 01:25:13;;;;;;;23.65;12.80;;;;;;;16.84;100.00;101945.97;5045755;28;20028;-67
2023/10/02 01:27:46;;;;;;;23.92;13.30;;;;;;;16.83;100.00;101946.91;5047703;28;20029;-65
2023/10/02 01:30:21;;;;;;;30.50;14.25;;;;;;;16.81;100.00;101946.09;5047710;28;20104;-67
2023/10/02 01:33:11;;;;;;;24.73;13.38;;;;;;;16.78;100.00;101940.91;5047171;28;20056;-66
2023/10/02 01:35:58;;;;;;;28.83;13.82;;;;;;;16.78;100.00;101940.91;5045401;28;20025;-66
2023/10/02 01:38:34;;;;;;;27.25;13.02;;;;;;;16.78;100.00;101943.56;5047325;28;20146;-66
2023/10/02 01:41:04;;;;;;;28.05;12.77;;;;;;;16.76;100.00;101942.75;5046811;28;20146;-66
2023/10/02 01:43:35;;;;;;;24.77;12.25;;;;;;;16.76;100.00;101948.06;5048651;28;20028;-67
2023/10/02 01:46:01;;;;;;;25.88;13.30;;;;;;;16.80;100.00;101944.38;5030967;28;20028;-68
2023/10/02 01:48:36;;;;;;;26.60;13.55;;;;;;;16.79;100.00;101938.19;5053470;28;20059;-66
2023/10/02 01:51:15;;;;;;;23.88;12.63;;;;;;;16.83;100.00;101938.06;5052839;28;20032;-68
2023/10/02 01:53:45;;;;;;;28.15;13.00;;;;;;;16.85;100.00;101946.81;5051386;28;20032;-67
2023/10/02 01:56:12;;;;;;;30.55;12.52;;;;;;;16.80;100.00;101952.38;5051824;28;20051;-67
2023/10/02 01:58:41;;;;;;;29.50;13.43;;;;;;;16.82;100.00;101947.81;5052638;28;20056;-66
2023/10/02 02:01:10;;;;;;;25.50;12.63;;;;;;;16.78;100.00;101949.75;5051993;28;20116;-70
2023/10/02 02:03:40;;;;;;;24.65;12.65;;;;;;;16.79;100.00;101954.16;5051596;28;20021;-66
2023/10/02 02:06:08;;;;;;;24.63;12.60;;;;;;;16.78;100.00;101952.44;5051914;28;20119;-66
2023/10/02 02:08:43;;;;;;;32.53;12.75;;;;;;;16.79;100.00;101943.50;5051464;28;20061;-66
2023/10/02 02:11:19;;;;;;;26.48;13.10;;;;;;;16.81;100.00;101943.44;5051538;28;20025;-66
2023/10/02 02:13:58;;;;;;;24.15;11.90;;;;;;;16.77;100.00;101936.53;5051540;28;20037;-67
2023/10/02 02:16:34;;;;;;;24.50;12.80;;;;;;;16.77;100.00;101940.03;5051441;28;20499;-69
2023/10/02 02:19:07;;;;;;;28.42;13.63;;;;;;;16.77;100.00;101933.84;5051627;28;20025;-68
2023/10/02 02:21:34;;;;;;;28.65;12.98;;;;;;;16.73;100.00;101929.56;5052902;28;20017;-67
2023/10/02 02:24:08;;;;;;;27.00;12.48;;;;;;;16.71;100.00;101934.13;5050569;28;20057;-66
2023/10/02 02:26:39;;;;;;;23.83;11.85;;;;;;;16.63;100.00;101937.09;5052832;28;20013;-69
2023/10/02 02:29:05;;;;;;;21.88;11.07;;;;;;;16.58;100.00;101931.13;5051921;28;20557;-66
2023/10/02 02:31:32;;;;;;;26.42;13.40;;;;;;;16.52;100.00;101927.78;5051865;28;20060;-66
2023/10/02 02:34:14;;;;;;;24.90;11.77;;;;;;;16.49;100.00;101927.91;5051283;28;20036;-67
2023/10/02 02:36:41;;;;;;;25.45;13.20;;;;;;;16.47;100.00;101931.56;5052565;28;20031;-66
2023/10/02 02:39:15;;;;;;;25.50;12.75;;;;;;;16.42;100.00;101932.63;5050743;28;20112;-67
2023/10/02 02:41:45;;;;;;;26.77;12.15;;;;;;;16.40;100.00;101930.94;5052293;28;20043;-68
2023/10/02 02:44:35;;;;;;;29.55;13.77;;;;;;;16.38;100.00;101932.81;5051999;28;20490;-67
2023/10/02 02:47:07;;;;;;;23.80;12.20;;;;;;;16.33;100.00;101922.34;5052854;28;20029;-67
2023/10/02 02:49:48;;;;;;;27.70;14.00;;;;;;;16.30;100.00;101930.44;5051159;28;20063;-66
2023/10/02 02:52:13;;;;;;;25.67;13.30;;;;;;;16.28;100.00;101922.53;5052277;28;20112;-64
2023/10/02 02:54:44;;;;;;;27.20;13.82;;;;;;;16.24;100.00;101922.72;5052857;28;20169;-68
2023/10/02 02:57:09;;;;;;;24.15;12.73;;;;;;;16.21;100.00;101931.69;5052200;28;20040;-67
2023/10/02 02:59:38;;;;;;;25.15;12.65;;;;;;;16.20;100.00;101934.41;5049339;28;20029;-67
2023/10/02 03:02:10;;;;;;;;;;;;;;;16.15;100.00;101932.81;5051358;28;20032;-65
2023/10/02 03:04:38;;;;;;;25.20;13.18;;;;;;;16.11;100.00;101936.53;5049900;28;19912;-65
2023/10/02 03:07:18;;;;;;;25.98;13.27;;;;;;;16.08;100.00;101935.78;5049788;28;20028;-65
2023/10/02 03:09:44;;;;;;;27.48;12.30;;;;;;;16.02;100.00;101934.22;5049480;28;20029;-66
2023/10/02 03:12:10;;;;;;;28.60;11.85;;;;;;;16.01;100.00;101938.66;5049966;28;20032;-65
2023/10/02 03:14:35;;;;;;;30.45;14.23;;;;;;;15.98;100.00;101936.13;5049980;28;20050;-66
2023/10/02 03:17:28;;;;;;;29.98;13.52;;;;;;;16.00;100.00;101933.41;5048322;28;20021;-67
2023/10/02 03:19:46;;;;;;;28.58;13.73;;;;;;;15.96;100.00;101931.78;5048792;28;20033;-66
2023/10/02 03:22:12;;;;;;;26.92;13.23;;;;;;;15.95;100.00;101924.75;5031891;28;20052;-67
2023/10/02 03:24:39;;;;;;;27.40;12.98;;;;;;;15.92;100.00;101926.56;5049834;28;20049;-67
2023/10/02 03:27:08;;;;;;;26.52;12.90;;;;;;;15.92;100.00;101923.03;5049575;28;20021;-68
2023/10/02 03:29:34;;;;;;;26.98;13.60;;;;;;;15.88;100.00;101924.97;5049629;28;20029;-66
2023/10/02 03:32:00;;;;;;;28.35;13.65;;;;;;;15.87;100.00;101920.56;5049606;28;20052;-66
2023/10/02 03:34:29;;;;;;;36.15;14.57;;;;;;;15.85;100.00;101919.78;5048890;28;20051;-66
2023/10/02 03:37:14;;;;;;;31.50;13.77;;;;;;;15.84;100.00;101914.53;5049841;28;20033;-65
2023/10/02 03:39:59;;;;;;;25.70;13.07;;;;;;;15.85;100.00;101911.81;5049894;28;20024;-69
2023/10/02 03:42:30;;;;;;;30.98;13.93;;;;;;;15.90;100.00;101916.94;5049809;28;20059;-66
2023/10/02 03:44:56;;;;;;;28.98;13.77;;;;;;;15.91;100.00;101913.34;5048624;28;20068;-67
2023/10/02 03:47:30;;;;;;;34.78;14.07;;;;;;;15.89;100.00;101908.09;5049967;28;20050;-66
2023/10/02 03:50:00;;;;;;;28.75;14.77;;;;;;;15.88;100.00;101908.16;5048905;28;20037;-66
2023/10/02 03:52:26;;;;;;;30.23;13.85;;;;;;;15.88;100.00;101911.69;5049439;28;20032;-67
2023/10/02 03:54:54;;;;;;;36.70;14.15;;;;;;;15.89;100.00;101920.50;5049276;28;20079;-66
2023/10/02 03:57:47;;;;;;;25.80;13.15;;;;;;;15.87;100.00;101920.56;5049147;28;20103;-66
2023/10/02 04:00:27;;;;;;;34.83;14.40;;;;;;;15.85;100.00;101911.81;5049709;28;20104;-66
2023/10/02 04:02:56;;;;;;;32.13;14.93;;;;;;;15.85;100.00;101903.81;5048700;28;20025;-67
2023/10/02 04:05:32;;;;;;;35.60;15.02;;;;;;;15.85;100.00;101898.50;5048596;28;20549;-66
2023/10/02 04:08:37;;;;;;;24.23;13.43;;;;;;;15.84;100.00;101883.50;5048742;28;20025;-67
2023/10/02 04:10:56;;;;;;;27.67;14.55;;;;;;;15.89;100.00;101883.28;5048192;28;20471;-66
2023/10/02 04:13:33;;;;;;;36.60;14.98;;;;;;;15.89;100.00;101883.28;5049083;28;20051;-66
2023/10/02 04:18:46;;;;;;;34.13;15.30;;;;;;;15.90;100.00;101872.59;5048063;28;20040;-66
2023/10/02 04:21:13;;;;;;;34.15;14.45;;;;;;;15.96;100.00;101878.63;5049021;28;20047;-67
2023/10/02 04:23:42;;;;;;;39.42;17.17;;;;;;;15.97;100.00;101885.69;5049326;28;20031;-65
2023/10/02 04:26:20;;;;;;;;;;;;;;;15.99;100.00;101886.50;5047658;28;20028;-67
2023/10/02 04:28:56;;;;;;;27.40;14.35;;;;;;;16.02;100.00;101884.56;5049564;28;20574;-66
2023/10/02 04:31:24;;;;;;;36.45;15.45;;;;;;;16.00;100.00;101882.91;5031922;28;20118;-68
2023/10/02 04:34:14;;;;;;;34.03;15.30;;;;;;;15.99;100.00;101881.19;5049367;28;20403;-68
2023/10/02 04:36:40;;;;;;;33.63;15.40;;;;;;;16.00;100.00;101880.25;5048994;28;20033;-67
2023/10/02 04:39:51;;;;;;;38.20;16.13;;;;;;;16.04;100.00;101885.38;5031466;28;20060;-66
2023/10/02 04:44:44;;;;;;;28.02;13.82;;;;;;;16.02;100.00;101883.72;5049696;28;20073;-67
2023/10/02 04:47:17;;;;;;;39.40;16.15;;;;;;;16.03;100.00;101890.75;5049292;28;20032;-67
2023/10/02 04:55:31;;;;;;;33.40;15.68;;;;;;;16.00;100.00;101901.50;5048139;28;20091;-66
2023/10/02 04:58:04;;;;;;;33.35;14.95;;;;;;;15.92;100.00;101905.31;5048252;28;20021;-68
2023/10/02 05:00:33;;;;;;;39.42;15.60;;;;;;;15.89;100.00;101909.88;5048651;28;20067;-67
2023/10/02 05:05:49;;;;;;;38.20;15.50;;;;;;;15.91;100.00;101913.34;5050870;28;19923;-67
2023/10/02 05:08:20;;;;;;;38.13;15.80;;;;;;;15.88;100.00;101913.47;5041699;28;20025;-67
2023/10/02 05:10:56;;;;;;;38.65;15.02;;;;;;;15.90;100.00;101907.16;5044811;28;20017;-68
2023/10/02 05:16:07;;;;;;;31.15;14.65;;;;;;;15.86;100.00;101894.06;5031416;28;20120;-67
2023/10/02 05:18:33;;;;;;;34.13;14.93;;;;;;;15.91;100.00;101898.28;5045706;28;20104;-65
2023/10/02 05:21:01;;;;;;;35.70;15.95;;;;;;;15.96;100.00;101905.19;5043811;28;20458;-66
2023/10/02 05:23:28;;;;;;;35.60;15.80;;;;;;;15.98;100.00;101906.88;5046387;28;20029;-66
2023/10/02 05:25:54;;;;;;;33.33;15.15;;;;;;;15.99;100.00;101894.47;5047172;28;20367;-68
2023/10/02 05:28:20;;;;;;;36.83;15.57;;;;;;;15.96;100.00;101903.44;5045501;28;20017;-66
2023/10/02 05:30:46;;;;;;;35.90;15.18;;;;;;;15.98;100.00;101903.38;5045645;28;20021;-67
2023/10/02 05:33:15;;;;;;;35.53;15.13;;;;;;;15.98;100.00;101898.91;5051349;28;20025;-67
2023/10/02 05:35:45;;;;;;;33.58;15.00;;;;;;;15.99;100.00;101905.13;5046172;28;20025;-68
2023/10/02 05:38:16;;;;;;;35.70;15.20;;;;;;;16.02;100.00;101905.84;5046259;28;20360;-67
2023/10/02 05:40:47;;;;;;;35.47;15.38;;;;;;;16.01;100.00;101913.88;5045594;28;20028;-67
2023/10/02 05:43:17;;;;;;;38.83;16.05;;;;;;;16.09;100.00;101910.91;5062241;28;20036;-67
2023/10/02 05:50:53;;;;;;;39.90;16.33;;;;;;;16.19;100.00;101903.44;5045049;28;20033;-65
2023/10/02 05:53:22;;;;;;;32.83;14.73;;;;;;;16.20;100.00;101921.13;5042992;28;20040;-67
2023/10/02 05:56:05;;;;;;;37.72;15.25;;;;;;;16.21;100.00;101915.75;5044257;28;20025;-67
2023/10/02 05:58:36;;;;;;;34.20;15.18;;;;;;;16.24;100.00;101920.94;5042520;28;20434;-68
2023/10/02 06:01:09;;;;;;;38.40;16.48;;;;;;;16.27;100.00;101925.25;5049125;28;20075;-65
2023/10/02 06:03:36;;;;;;;33.63;15.50;;;;;;;16.31;100.00;101934.84;5064894;28;20025;-69
2023/10/02 06:06:21;;;;;;;39.30;16.77;;;;;;;16.39;100.00;101929.22;5064496;28;20031;-66
2023/10/02 06:11:59;;;;;;;;;;;;;;;16.45;100.00;101922.75;5045552;28;20040;-68
2023/10/02 06:14:22;;;;;;;37.60;16.00;;;;;;;16.52;100.00;101937.53;5050218;28;19916;-67
2023/10/02 06:16:48;;;;;;;39.15;15.73;;;;;;;16.56;100.00;101931.19;5064877;28;20390;-66
2023/10/02 06:19:13;;;;;;;40.50;16.35;;;;;;;16.59;100.00;101933.72;5044800;28;20038;-66
2023/10/02 06:21:46;;;;;;;36.47;15.93;;;;;;;16.62;100.00;101932.72;5045464;28;20067;-66
2023/10/02 06:24:20;;;;;;;36.63;16.85;;;;;;;16.61;100.00;101939.81;5046767;28;20071;-66
2023/10/02 06:26:58;;;;;;;35.55;15.63;;;;;;;16.68;100.00;101940.44;5053747;28;20067;-68
2023/10/02 06:29:35;;;;;;;36.17;15.68;;;;;;;16.71;100.00;101944.75;5041195;28;20111;-67
2023/10/02 06:32:05;;;;;;;34.80;15.82;;;;;;;16.78;100.00;101940.91;5045305;28;20017;-66
2023/10/02 06:34:38;;;;;;;40.13;16.15;;;;;;;16.80;100.00;101944.38;5044369;28;20399;-68
2023/10/02 06:37:13;;;;;;;35.25;16.75;;;;;;;16.76;100.00;101942.75;5042886;28;20446;-66
2023/10/02 06:39:41;;;;;;;40.42;16.27;;;;;;;16.77;100.00;101945.34;5048255;28;20091;-65
2023/10/02 06:42:12;;;;;;;39.72;17.15;;;;;;;16.79;100.00;101939.97;5048018;28;20021;-68
2023/10/02 06:44:41;;;;;;;37.45;16.23;;;;;;;16.84;100.00;101945.09;5031829;28;20105;-65
2023/10/02 06:47:13;;;;;;;;;;;;;;;16.85;100.00;101955.69;5028813;28;20029;-66
2023/10/02 06:49:43;;;;;;;33.67;16.33;;;;;;;16.90;100.00;101948.38;5028417;28;19920;-67
2023/10/02 06:52:16;;;;;;;32.35;15.95;;;;;;;16.94;100.00;101941.09;5069662;28;20558;-67
2023/10/02 06:54:43;;;;;;;39.40;16.20;;;;;;;16.99;100.00;101935.59;5068615;28;20104;-67
2023/10/02 06:57:16;;;;;;;39.78;18.25;;;;;;;17.03;100.00;101931.84;5064195;28;20083;-68
2023/10/02 06:59:51;;;;;;;42.70;17.65;;;;;;;17.05;100.00;101930.00;5049716;28;20040;-68
2023/10/02 07:02:17;;;;;;;36.10;15.93;;;;;;;17.09;100.00;101934.28;5047799;28;20024;-67
2023/10/02 07:04:44;;;;;;;39.42;16.98;;;;;;;17.19;100.00;101940.06;5048296;28;20028;-66
2023/10/02 07:07:11;;;;;;;41.65;16.92;;;;;;;17.28;100.00;101944.13;5049480;28;20029;-68
2023/10/02 07:09:37;;;;;;;42.97;18.13;;;;;;;17.43;100.00;101953.22;5047127;28;20487;-65
2023/10/02 07:12:08;;;;;;;37.97;16.38;;;;;;;17.54;100.00;101952.72;5048471;28;20067;-66
2023/10/02 07:14:38;;;;;;;37.72;16.65;;;;;;;17.66;100.00;101957.50;5047136;28;20041;-67
2023/10/02 07:17:16;;;;;;;35.33;16.00;;;;;;;17.87;100.00;101962.75;5046452;28;20078;-68
2023/10/02 07:19:51;;;;;;;33.90;16.20;;;;;;;18.06;100.00;101964.53;5047740;28;20072;-67
2023/10/02 07:22:24;;;;;;;35.22;15.80;;;;;;;18.23;100.00;101957.56;5047261;28;20064;-68
2023/10/02 07:24:55;;;;;;;36.08;15.65;;;;;;;18.27;100.00;101956.50;5047731;28;20028;-69
2023/10/02 07:27:25;;;;;;;29.98;13.57;;;;;;;18.34;100.00;101949.91;5045932;28;20391;-67
2023/10/02 07:29:56;;;;;;;29.35;14.35;;;;;;;18.33;100.00;101956.16;5067204;28;20501;-66
2023/10/02 07:32:24;;;;;;;27.73;13.90;;;;;;;18.38;100.00;101954.16;5066667;28;20036;-66
2023/10/02 07:34:51;;;;;;;32.53;15.27;;;;;;;18.44;100.00;101961.84;5046445;28;20024;-67
2023/10/02 07:37:21;;;;;;;34.22;15.45;;;;;;;18.43;100.00;101960.09;5046691;28;20482;-65
2023/10/02 07:39:56;;;;;;;29.90;14.90;;;;;;;18.41;100.00;101972.69;5048465;28;20151;-66
2023/10/02 07:42:28;;;;;;;34.97;14.75;;;;;;;18.47;100.00;101982.16;5067272;28;20471;-66
2023/10/02 07:45:26;;;;;;;30.48;14.23;;;;;;;18.49;100.00;101976.75;5065814;28;20350;-68
2023/10/02 07:50:38;;;;;;;29.52;14.48;;;;;;;18.68;100.00;101980.25;5064059;28;20059;-67
2023/10/02 07:53:05;;;;;;;26.90;14.85;;;;;;;18.55;100.00;101984.47;5066970;28;20040;-64
2023/10/02 07:55:34;;;;;;;32.85;14.80;;;;;;;18.68;100.00;101980.25;5065355;28;20025;-66
2023/10/02 07:58:01;;;;;;;28.50;14.43;;;;;;;18.89;100.00;101984.56;5053414;28;20028;-66
2023/10/02 08:00:40;;;;;;;30.90;14.32;;;;;;;18.96;100.00;101979.78;5048244;28;20431;-65
2023/10/02 08:05:56;;;;;;;31.77;15.43;;;;;;;19.16;100.00;101974.31;5066487;28;20038;-67
2023/10/02 08:08:34;;;;;;;32.37;16.03;;;;;;;19.09;100.00;101982.72;5047456;28;20781;-66
2023/10/02 08:11:02;;;;;;;32.55;15.18;;;;;;;19.21;100.00;101998.09;5055510;28;20025;-65
2023/10/02 08:13:35;;;;;;;32.35;14.60;;;;;;;19.34;100.00;101990.28;5045748;28;20041;-66
2023/10/02 08:16:11;;;;;;;33.10;15.35;;;;;;;19.42;100.00;101980.06;5051425;28;20201;-67
2023/10/02 08:18:57;;;;;;;29.75;15.25;;;;;;;19.51;100.00;101972.50;5065073;28;20036;-66
2023/10/02 08:21:33;;;;;;;32.30;14.55;;;;;;;19.55;100.00;101974.06;5065264;28;20047;-67
2023/10/02 08:24:01;;;;;;;30.98;15.35;;;;;;;19.75;100.00;101974.78;5066032;28;20467;-66
2023/10/02 08:26:27;;;;;;;30.13;14.43;;;;;;;19.87;100.00;101968.72;5062184;28;20070;-67
2023/10/02 08:28:52;;;;;;;33.53;14.68;;;;;;;19.88;100.00;101975.81;5044715;28;20496;-65
2023/10/02 08:31:18;;;;;;;32.55;14.77;;;;;;;19.96;100.00;101975.41;5045718;28;20017;-66
2023/10/02 08:33:43;;;;;;;31.73;16.15;;;;;;;20.03;100.00;101974.16;5043620;28;20025;-66
2023/10/02 08:36:13;;;;;;;34.05;16.13;;;;;;;20.13;100.00;101966.44;5046213;28;20414;-65
2023/10/02 08:38:40;;;;;;;32.25;16.05;;;;;;;20.19;100.00;101967.91;5045453;28;20115;-66
2023/10/02 08:41:08;;;;;;;37.90;17.70;;;;;;;20.28;100.00;101963.84;5045093;28;20082;-67
2023/10/02 08:43:41;;;;;;;31.73;16.17;;;;;;;20.32;100.00;101960.06;5045372;28;20029;-65
2023/10/02 08:46:07;;;;;;;32.58;17.00;;;;;;;20.51;100.00;101962.53;5045195;28;20414;-64
2023/10/02 08:48:34;;;;;;;41.30;17.52;;;;;;;20.70;100.00;101973.00;5062793;28;20020;-67
2023/10/02 08:51:00;;;;;;;36.75;17.25;;;;;;;20.87;100.00;101967.59;5064992;28;20031;-66
2023/10/02 08:53:26;;;;;;;34.95;16.92;;;;;;;21.02;100.00;101979.22;5053662;28;20269;-67
2023/10/02 08:56:00;;;;;;;37.58;18.23;;;;;;;21.33;100.00;101972.84;5043629;28;20114;-67
2023/10/02 08:58:27;;;;;;;36.05;18.25;;;;;;;21.50;100.00;101970.06;5046698;28;20049;-65
2023/10/02 09:03:41;;;;;;;33.58;16.13;;;;;;;21.78;100.00;101973.72;5063419;28;20049;-66
2023/10/02 09:06:28;;;;;;;34.53;17.58;;;;;;;21.89;100.00;101970.34;5048739;28;20159;-66
2023/10/02 09:11:39;;;;;;;31.08;16.85;;;;;;;22.03;100.00;101966.78;5042186;28;20072;-66
2023/10/02 09:14:16;;;;;;;33.75;15.85;;;;;;;22.03;100.00;101964.94;5043316;28;20385;-67
2023/10/02 09:16:45;;;;;;;35.75;17.17;;;;;;;22.08;100.00;101964.66;5045469;28;20036;-67
2023/10/02 09:19:30;;;;;;;28.35;15.80;;;;;;;22.18;100.00;101965.75;5042552;28;20040;-65
2023/10/02 09:22:10;;;;;;;43.05;17.20;;;;;;;22.21;100.00;101962.88;5044120;28;20086;-65
2023/10/02 09:24:36;;;;;;;28.85;15.35;;;;;;;22.67;100.00;101966.16;5048470;28;20051;-65
2023/10/02 09:27:23;;;;;;;36.47;15.02;;;;;;;22.75;100.00;101962.94;5065970;28;20471;-66
2023/10/02 09:33:07;;;;;;;29.48;15.55;;;;;;;22.95;100.00;101964.28;5040313;28;20036;-66
2023/10/02 09:35:39;;;;;;;31.35;15.18;;;;;;;22.90;100.00;101949.44;5064869;28;20020;-65
2023/10/02 09:38:10;;;;;;;27.98;15.05;;;;;;;22.75;100.00;101949.50;5061933;28;20028;-67
2023/10/02 09:43:22;;;;;;;34.08;16.77;;;;;;;22.38;100.00;101954.66;5052315;28;20388;-64
2023/10/02 09:45:48;;;;;;;29.10;14.55;;;;;;;22.58;100.00;101942.63;5045554;28;20025;-66
2023/10/02 09:51:10;;;;;;;27.23;14.25;;;;;;;22.43;100.00;101925.69;5025324;28;20091;-65
2023/10/02 09:53:41;;;;;;;30.42;15.73;;;;;;;22.39;100.00;101935.75;5025588;28;20044;-66
2023/10/02 09:56:13;;;;;;;27.85;13.73;;;;;;;22.41;100.00;101923.09;5026915;28;20022;-71
2023/10/02 09:59:16;;;;;;;25.27;14.40;;;;;;;22.38;100.00;101930.50;5041686;28;20033;-70
2023/10/02 10:01:41;;;;;;;29.70;14.75;;;;;;;22.34;100.00;101937.91;5058152;28;20020;-71
2023/10/02 10:07:09;;;;;;;31.95;15.18;;;;;;;22.41;100.00;101933.84;5044867;28;20040;-68
2023/10/02 10:09:51;;;;;;;30.73;14.43;;;;;;;22.55;100.00;101938.25;5048401;28;20079;-72
2023/10/02 10:12:32;;;;;;;28.55;14.90;;;;;;;22.43;100.00;101931.91;5050742;28;20037;-68
2023/10/02 10:15:31;;;;;;;25.52;12.60;;;;;;;22.39;100.00;101940.28;5066311;28;20514;-70
2023/10/02 10:17:57;;;;;;;29.98;14.95;;;;;;;22.49;100.00;101924.41;5067007;28;20496;-68
2023/10/02 10:20:26;;;;;;;30.50;14.60;;;;;;;22.85;100.00;101930.94;5068919;28;20028;-70
2023/10/02 10:22:55;;;;;;;28.33;13.82;;;;;;;22.87;100.00;101929.00;5069496;28;20028;-70
2023/10/02 10:27:54;;;;;;;28.63;14.47;;;;;;;23.08;100.00;101921.28;5054767;28;20040;-76
2023/10/02 10:35:37;;;;;;;27.00;13.48;;;;;;;23.08;100.00;101921.28;5045804;28;20033;-71
2023/10/02 10:38:28;;;;;;;29.75;13.48;;;;;;;23.26;100.00;101922.78;5048154;28;20043;-73
2023/10/02 10:41:00;;;;;;;25.58;12.70;;;;;;;23.50;100.00;101914.78;5037123;28;20483;-70
2023/10/02 10:43:55;;;;;;;28.38;12.77;;;;;;;23.60;100.00;101920.38;5027358;28;20112;-75
2023/10/02 10:46:21;;;;;;;25.75;12.18;;;;;;;23.68;100.00;101922.47;5061434;28;20565;-68
2023/10/02 10:48:59;;;;;;;25.42;11.98;;;;;;;23.61;100.00;101916.72;5066598;28;20075;-73
2023/10/02 10:51:33;;;;;;;39.10;13.27;;;;;;;23.71;100.00;101924.94;5057688;28;20037;-66
2023/10/02 10:54:12;;;;;;;27.70;11.93;;;;;;;24.04;100.00;101925.25;5048397;28;20017;-61
2023/10/02 10:56:44;;;;;;;30.17;12.52;;;;;;;24.10;100.00;101932.88;5046835;28;20124;-62
2023/10/02 10:59:11;;;;;;;23.10;11.82;;;;;;;24.17;100.00;101938.72;5048027;28;20017;-62
2023/10/02 11:04:34;;;;;;;21.63;10.57;;;;;;;24.03;100.00;101923.53;5047259;28;20475;-59
2023/10/02 11:07:03;;;;;;;20.27;10.93;;;;;;;24.09;100.00;101925.78;5046818;28;20459;-56
2023/10/02 11:09:28;;;;;;;23.67;10.25;;;;;;;24.38;100.00;101930.81;5051411;28;20540;-58
2023/10/02 11:11:54;;;;;;;20.63;10.23;;;;;;;24.45;100.00;101925.84;5047464;28;20033;-57
2023/10/02 11:14:34;;;;;;;21.27;10.93;;;;;;;24.54;99.99;101924.28;5046388;28;20040;-56
2023/10/02 11:17:04;;;;;;;22.33;10.68;;;;;;;24.72;99.93;101917.44;5045566;28;20391;-58
2023/10/02 11:22:22;;;;;;;19.27;9.68;;;;;;;24.91;98.22;101916.06;5056030;28;20416;-60
2023/10/02 11:24:53;;;;;;;24.10;10.68;;;;;;;24.77;97.16;101906.31;5049674;28;20668;-58
2023/10/02 11:27:19;;;;;;;18.92;9.52;;;;;;;24.58;98.76;101904.19;5045668;28;20112;-57
2023/10/02 11:30:00;;;;;;;19.70;9.90;;;;;;;24.30;100.00;101906.31;5046889;28;20025;-58
2023/10/02 11:32:45;;;;;;;19.05;9.45;;;;;;;24.32;100.00;101913.31;5043553;28;20526;-58
2023/10/02 11:35:10;;;;;;;19.83;9.57;;;;;;;24.32;100.00;101905.22;5046260;28;20078;-60
2023/10/02 11:37:44;;;;;;;19.08;9.43;;;;;;;24.51;100.00;101900.25;5045919;28;20033;-57
2023/10/02 11:40:10;;;;;;;23.98;10.30;;;;;;;24.70;100.00;101897.88;5046624;28;20021;-56
2023/10/02 11:42:35;;;;;;;21.85;8.73;;;;;;;24.99;99.96;101893.88;5046895;28;20036;-56
2023/10/02 11:45:00;;;;;;;18.23;9.57;;;;;;;25.31;94.80;101889.59;5047620;28;20092;-57
2023/10/02 11:47:28;;;;;;;17.88;9.77;;;;;;;25.26;97.06;101887.28;5046456;28;20029;-57
2023/10/02 11:49:53;;;;;;;17.40;9.07;;;;;;;25.56;93.09;101885.75;5046404;28;20039;-58
2023/10/02 11:52:18;;;;;;;17.95;8.10;;;;;;;25.59;93.07;101881.94;5066123;28;20020;-59
2023/10/02 11:54:44;;;;;;;16.08;7.05;;;;;;;25.74;93.30;101878.00;5066877;28;20024;-60
2023/10/02 11:57:10;;;;;;;16.48;7.65;;;;;;;25.92;90.03;101871.22;5066201;28;20020;-59
2023/10/02 11:59:43;;;;;;;19.17;8.07;;;;;;;26.27;86.38;101871.91;5066865;28;20016;-60
2023/10/02 12:02:11;;;;;;;14.98;7.20;;;;;;;26.63;85.90;101875.16;5065170;28;20390;-61
2023/10/02 12:04:37;;;;;;;16.75;7.97;;;;;;;26.65;84.37;101873.19;5067329;28;20472;-59
2023/10/02 12:07:03;;;;;;;16.23;7.55;;;;;;;26.81;83.41;101866.41;5066145;28;20442;-58
2023/10/02 12:09:28;;;;;;;16.33;7.50;;;;;;;26.84;85.51;101858.91;5046831;28;20031;-59
2023/10/02 12:11:55;;;;;;;14.30;7.82;;;;;;;27.28;82.11;101867.78;5046588;28;20025;-58
2023/10/02 12:14:22;;;;;;;13.65;7.90;;;;;;;27.91;78.04;101863.06;5044896;28;20037;-59
2023/10/02 12:16:47;;;;;;;18.50;7.72;;;;;;;28.22;74.62;101858.34;5046458;28;20100;-56
2023/10/02 12:19:15;;;;;;;15.70;7.82;;;;;;;28.25;75.03;101860.75;5043192;28;20110;-60
2023/10/02 12:21:40;;;;;;;17.13;8.13;;;;;;;28.39;74.91;101847.78;5039787;28;20021;-59
2023/10/02 12:24:07;;;;;;;13.88;7.53;;;;;;;28.63;73.33;101841.84;5045859;28;20048;-59
2023/10/02 12:26:33;;;;;;;15.82;7.80;;;;;;;28.16;76.41;101844.50;5065331;28;20036;-59